Skip Navigation Links
NOAA logo - Click to go to the NOAA homepage
NOAA's National Weather Service
Alaska Aviation Weather Unit
  NWS logo - Click to go to the NWS homepage
Left Navbar Graphic     23 AKDT = 07 GMT

   
NOAA is celebrating 200 years of science, service, and stewardship. Visit the NOAA 200th celebration Web site to learn more.
USA.gov is the U.S. Government's official Web portal to all Federal, state and local government Web resources and services.
Facebook
NWS on Facebook

Important Change Regarding the AAWU Web Presence

 

Over the last several months, the AAWU has been working to navigate its webpages to a nationally supported server. Security, as well as other needs, have necessitated the change.  In the process, we have made an effort to enhance the functionality of our website, as well as some of our products. As of June 20, 2017, aawu.arh.noaa.gov will be discontinued. The new AAWU web address is weather.gov/aawu. It is now live and will run in-parallel with the old site until it is discontinued. Please send any feedback or questions regarding the new webpages to nws.ar.aawu.webauthors@noaa.gov.  Thank you for your patience during this time of transition.
AAWU Home :: Display TAF Add Bookmark
TAF PATK 240521Z 2406/2506 20008KT P6SM SCT100 OVC200
     FM241400 VRB04KT P6SM -RA BKN025 OVC040
     FM241800 20007KT 5SM -RA BR BKN015 OVC025=

METAR PATK 240153Z AUTO 19009KT 10SM FEW060 SCT080 13/M01 A2997 RMK AO2 SLP153 T01281011 TSNO= METAR PATK 240253Z AUTO 21011KT 10SM CLR 13/M01 A2997 RMK AO2 SLP153 T01331011 55004 TSNO= METAR PATK 240353Z AUTO 20012KT 10SM CLR 13/M01 A2998 RMK AO2 SLP154 T01281011 TSNO= METAR PATK 240453Z AUTO 20009G16KT 10SM CLR 12/M01 A2998 RMK AO2 SLP157 T01171011 TSNO= METAR PATK 240553Z AUTO 19009KT 10SM CLR 11/M01 A2999 RMK AO2 SLP159 T01061011 10133 20106 53005 TSNO= METAR PATK 240653Z AUTO 18004KT 10SM CLR 09/M01 A3000 RMK AO2 SLP163 T00941006 TSNO=
 Alaska TAF Map

NOAA's National Weather Service
Alaska Aviation Weather Unit
6930 Sand Lake Road
Anchorage, AK 99502-1845
Disclaimer
Credits
Glossary
Privacy Policy
About Us
Career Opportunities
Contact AAWU Internet Services Site last modified: April, 17th 2012